createdAt,value
2022-07-26T00:00:10.241Z,100230.28
2022-07-26T00:02:37.177Z,100234.88
2022-07-26T00:05:04.538Z,100245.69
2022-07-26T00:07:36.577Z,100249.38
2022-07-26T00:10:05.462Z,100244.03
2022-07-26T00:12:33.332Z,100247.94
2022-07-26T00:15:00.110Z,100255.13
2022-07-26T00:17:27.923Z,100256.75
2022-07-26T00:19:57.531Z,100250.53
2022-07-26T00:22:36.312Z,100243.66
2022-07-26T00:25:05.818Z,100231.91
2022-07-26T00:27:36.235Z,100228.84
2022-07-26T00:30:08.873Z,100250.66
2022-07-26T00:32:36.387Z,100250.75
2022-07-26T00:35:04.149Z,100242.78
2022-07-26T00:37:30.906Z,100241.25
2022-07-26T00:40:00.155Z,100246.97
2022-07-26T00:42:27.109Z,100252.63
2022-07-26T00:44:53.799Z,100258.03
2022-07-26T00:47:20.451Z,100260.88
2022-07-26T00:49:47.099Z,100264.53
2022-07-26T00:52:14.002Z,100266.53
2022-07-26T00:54:43.912Z,100263.91
2022-07-26T00:57:10.739Z,100273.28
2022-07-26T00:59:37.907Z,100287.66
2022-07-26T01:02:05.735Z,100277.06
2022-07-26T01:04:32.527Z,100271.81
2022-07-26T01:06:59.620Z,100280.41
2022-07-26T01:09:26.553Z,100292.34
2022-07-26T01:11:53.419Z,100294.25
2022-07-26T01:14:21.536Z,100300.59
2022-07-26T01:16:48.238Z,100291.63
2022-07-26T01:19:15.349Z,100285.25
2022-07-26T01:21:42.036Z,100275.69
2022-07-26T01:24:09.367Z,100266.13
2022-07-26T01:26:36.505Z,100270.78
2022-07-26T01:29:03.783Z,100261.47
2022-07-26T01:31:30.608Z,100252.84
2022-07-26T01:33:57.785Z,100253.53
2022-07-26T01:36:24.440Z,100258.03
2022-07-26T01:38:51.081Z,100263.97
2022-07-26T01:41:17.887Z,100265.59
2022-07-26T01:43:57.566Z,100264.63
2022-07-26T01:46:24.920Z,100268.38
2022-07-26T01:48:52.416Z,100274.81
2022-07-26T01:51:22.078Z,100272.16
2022-07-26T01:53:48.777Z,100258.03
2022-07-26T01:56:17.085Z,100267.94
2022-07-26T01:58:44.606Z,100271.38
2022-07-26T02:01:11.354Z,100273.28
2022-07-26T02:03:38.116Z,100265.63
2022-07-26T02:06:05.369Z,100270.09
2022-07-26T02:08:32.841Z,100270.88
2022-07-26T02:11:00.495Z,100272.88
2022-07-26T02:13:38.930Z,100276.75
2022-07-26T02:16:08.801Z,100269.84
2022-07-26T02:18:37.815Z,100278.13
2022-07-26T02:21:05.868Z,100278.22
2022-07-26T02:23:33.726Z,100283.88
2022-07-26T02:26:00.699Z,100281.28
2022-07-26T02:28:28.179Z,100286.19
2022-07-26T02:30:55.038Z,100291.94
2022-07-26T02:33:23.604Z,100287.09
2022-07-26T02:35:50.421Z,100288.22
2022-07-26T02:38:17.433Z,100290.09
2022-07-26T02:40:44.380Z,100290.38
2022-07-26T02:43:11.269Z,100292.34
2022-07-26T02:45:38.403Z,100285.28
2022-07-26T02:48:05.457Z,100293.28
2022-07-26T02:50:32.145Z,100285.28
2022-07-26T02:52:58.816Z,100284.31
2022-07-26T02:55:26.316Z,100292.34
2022-07-26T02:57:53.060Z,100300.34
2022-07-26T03:00:23.492Z,100294.84
2022-07-26T03:02:51.380Z,100299.16
2022-07-26T03:05:18.610Z,100300.78
2022-07-26T03:07:45.384Z,100301.09
2022-07-26T03:10:12.073Z,100297.38
2022-07-26T03:12:38.703Z,100289.19
2022-07-26T03:15:06.066Z,100295.81
2022-07-26T03:17:32.722Z,100281.84
2022-07-26T03:19:59.440Z,100291.81
2022-07-26T03:22:26.048Z,100291.97
2022-07-26T03:24:52.747Z,100295.97
2022-07-26T03:27:19.368Z,100295.09
2022-07-26T03:29:46.072Z,100292.09
2022-07-26T03:32:12.723Z,100291.38
2022-07-26T03:34:39.352Z,100289.34
2022-07-26T03:37:06.873Z,100287.34
2022-07-26T03:39:33.495Z,100284.75
2022-07-26T03:42:00.139Z,100293.53
2022-07-26T03:44:26.758Z,100284.50
2022-07-26T03:46:53.380Z,100284.50
2022-07-26T03:49:20.082Z,100290.44
2022-07-26T03:51:46.805Z,100282.19
2022-07-26T03:54:13.578Z,100283.97
2022-07-26T03:56:40.825Z,100292.16
2022-07-26T03:59:09.228Z,100291.28
2022-07-26T04:01:42.202Z,100294.34
2022-07-26T04:04:09.943Z,100292.34
2022-07-26T04:06:39.205Z,100288.03
2022-07-26T04:09:06.540Z,100299.59
2022-07-26T04:11:35.012Z,100299.75
2022-07-26T04:14:01.637Z,100297.88
2022-07-26T04:16:28.377Z,100298.09
2022-07-26T04:18:55.167Z,100296.38
2022-07-26T04:21:22.226Z,100296.16
2022-07-26T04:23:51.338Z,100294.41
2022-07-26T04:26:20.453Z,100299.81
2022-07-26T04:28:47.469Z,100297.97
2022-07-26T04:31:14.279Z,100300.69
2022-07-26T04:33:41.010Z,100300.63
2022-07-26T04:36:07.811Z,100291.91
2022-07-26T04:38:34.472Z,100296.28
2022-07-26T04:41:01.192Z,100291.25
2022-07-26T04:43:27.862Z,100296.88
2022-07-26T04:45:54.714Z,100287.81
2022-07-26T04:48:21.384Z,100295.81
2022-07-26T04:50:48.494Z,100303.84
2022-07-26T04:53:15.325Z,100297.41
2022-07-26T04:55:42.835Z,100293.78
2022-07-26T04:58:09.790Z,100306.19
2022-07-26T05:00:51.311Z,100302.84
2022-07-26T05:03:25.205Z,100306.84
2022-07-26T05:05:52.456Z,100301.53
2022-07-26T05:08:19.297Z,100302.16
2022-07-26T05:10:46.039Z,100296.50
2022-07-26T05:13:12.722Z,100295.09
2022-07-26T05:15:39.422Z,100291.47
2022-07-26T05:18:10.644Z,100300.88
2022-07-26T05:20:39.491Z,100294.25
2022-07-26T05:23:06.300Z,100301.63
2022-07-26T05:25:32.894Z,100304.81
2022-07-26T05:27:59.608Z,100306.34
2022-07-26T05:30:26.434Z,100311.25
2022-07-26T05:32:53.207Z,100302.78
2022-07-26T05:35:20.102Z,100305.59
2022-07-26T05:37:46.926Z,100314.84
2022-07-26T05:40:14.018Z,100307.47
2022-07-26T05:42:40.817Z,100304.81
2022-07-26T05:45:08.056Z,100316.47
2022-07-26T05:47:34.707Z,100313.59
2022-07-26T05:50:01.466Z,100311.03
2022-07-26T05:52:28.206Z,100316.22
2022-07-26T05:54:54.840Z,100318.50
2022-07-26T05:57:21.488Z,100319.88
2022-07-26T05:59:48.080Z,100323.19
2022-07-26T06:02:14.844Z,100327.09
2022-07-26T06:04:41.613Z,100322.19
2022-07-26T06:07:08.403Z,100330.81
2022-07-26T06:09:37.909Z,100322.78
2022-07-26T06:12:06.233Z,100339.47
2022-07-26T06:14:34.269Z,100344.66
2022-07-26T06:17:01.316Z,100347.97
2022-07-26T06:19:27.980Z,100351.91
2022-07-26T06:21:54.618Z,100352.78
2022-07-26T06:24:21.271Z,100350.22
2022-07-26T06:26:54.745Z,100356.16
2022-07-26T06:29:23.968Z,100356.03
2022-07-26T06:31:58.994Z,100362.69
2022-07-26T06:34:25.828Z,100374.53
2022-07-26T06:36:52.431Z,100372.03
2022-07-26T06:39:19.041Z,100368.78
2022-07-26T06:41:45.663Z,100364.09
2022-07-26T06:44:12.463Z,100371.72
2022-07-26T06:46:39.255Z,100364.00
2022-07-26T06:49:06.014Z,100368.88
2022-07-26T06:51:33.976Z,100361.72
2022-07-26T06:54:00.990Z,100361.44
2022-07-26T06:56:27.956Z,100376.91
2022-07-26T06:58:56.329Z,100375.78
2022-07-26T07:01:57.811Z,100372.91
2022-07-26T07:04:10.153Z,100376.13
2022-07-26T07:06:37.119Z,100376.97
2022-07-26T07:09:03.984Z,100382.97
2022-07-26T07:11:35.258Z,100385.88
2022-07-26T07:14:03.325Z,100374.56
2022-07-26T07:16:30.364Z,100376.56
2022-07-26T07:18:57.168Z,100379.03
2022-07-26T07:21:23.771Z,100379.06
2022-07-26T07:23:50.393Z,100379.13
2022-07-26T07:26:17.134Z,100388.19
2022-07-26T07:28:43.732Z,100394.84
2022-07-26T07:31:10.392Z,100388.28
2022-07-26T07:33:52.468Z,100383.28
2022-07-26T07:36:20.350Z,100383.75
2022-07-26T07:38:48.181Z,100386.38
2022-07-26T07:41:14.833Z,100387.03
2022-07-26T07:43:41.450Z,100380.19
2022-07-26T07:46:08.282Z,100388.75
2022-07-26T07:48:35.034Z,100383.88
2022-07-26T07:51:01.777Z,100384.22
2022-07-26T07:53:28.379Z,100393.06
2022-07-26T07:55:57.573Z,100390.72
2022-07-26T07:58:24.176Z,100394.69
2022-07-26T08:00:50.791Z,100395.06
2022-07-26T08:03:18.007Z,100401.06
2022-07-26T08:05:46.697Z,100390.91
2022-07-26T08:08:16.982Z,100387.97
2022-07-26T08:10:52.041Z,100390.53
2022-07-26T08:13:21.261Z,100385.09
2022-07-26T08:15:49.490Z,100380.50
2022-07-26T08:18:16.191Z,100385.47
2022-07-26T08:20:43.657Z,100389.38
2022-07-26T08:23:11.368Z,100392.63
2022-07-26T08:25:50.082Z,100395.19
2022-07-26T08:28:45.126Z,100390.72
2022-07-26T08:31:09.443Z,100396.81
2022-07-26T08:33:36.179Z,100389.94
2022-07-26T08:36:07.597Z,100396.06
2022-07-26T08:38:34.189Z,100404.16
2022-07-26T08:41:00.882Z,100407.28
2022-07-26T08:43:27.603Z,100412.63
2022-07-26T08:46:00.218Z,100400.88
2022-07-26T08:48:27.426Z,100408.63
2022-07-26T08:50:55.607Z,100406.59
2022-07-26T08:53:23.042Z,100409.88
2022-07-26T08:56:06.313Z,100408.66
2022-07-26T08:58:40.825Z,100406.38
2022-07-26T09:01:12.076Z,100413.81
2022-07-26T09:03:39.160Z,100404.50
2022-07-26T09:06:28.101Z,100415.66
2022-07-26T09:09:12.680Z,100418.72
2022-07-26T09:11:40.596Z,100405.09
2022-07-26T09:14:07.285Z,100411.31
2022-07-26T09:16:38.663Z,100412.28
2022-07-26T09:19:22.696Z,100411.22
2022-07-26T09:21:49.935Z,100411.75
2022-07-26T09:24:38.520Z,100420.00
2022-07-26T09:27:06.317Z,100410.91
2022-07-26T09:29:43.878Z,100405.28
2022-07-26T09:32:19.269Z,100410.81
2022-07-26T09:34:52.539Z,100422.28
2022-07-26T09:37:33.581Z,100420.06
2022-07-26T09:40:04.351Z,100409.91
2022-07-26T09:42:31.075Z,100419.94
2022-07-26T09:44:58.160Z,100411.97
2022-07-26T09:47:40.968Z,100417.03
2022-07-26T09:50:16.626Z,100427.81
2022-07-26T09:53:07.383Z,100429.38
2022-07-26T09:55:55.316Z,100431.47
2022-07-26T09:58:23.079Z,100449.00
2022-07-26T10:00:49.938Z,100442.72
2022-07-26T10:03:16.695Z,100442.41
2022-07-26T10:05:43.433Z,100434.84
2022-07-26T10:08:10.418Z,100439.66
2022-07-26T10:10:42.680Z,100435.03
2022-07-26T10:13:10.314Z,100436.56
2022-07-26T10:15:48.576Z,100430.63
2022-07-26T10:18:38.047Z,100434.25
2022-07-26T10:21:23.303Z,100422.94
2022-07-26T10:24:01.450Z,100417.66
2022-07-26T10:26:31.241Z,100412.56
2022-07-26T10:29:15.790Z,100409.59
2022-07-26T10:32:00.878Z,100412.81
2022-07-26T10:34:31.933Z,100412.19
2022-07-26T10:37:00.212Z,100412.59
2022-07-26T10:39:27.156Z,100415.06
2022-07-26T10:42:08.043Z,100411.13
2022-07-26T10:44:39.141Z,100411.53
2022-07-26T10:47:15.905Z,100411.44
2022-07-26T10:49:57.730Z,100422.44
2022-07-26T10:52:27.317Z,100419.94
2022-07-26T10:54:56.977Z,100416.50
2022-07-26T10:57:30.619Z,100415.47
2022-07-26T10:59:57.573Z,100422.84
2022-07-26T11:02:32.367Z,100416.69
2022-07-26T11:05:01.076Z,100428.28
2022-07-26T11:07:28.860Z,100418.47
2022-07-26T11:09:56.771Z,100419.69
2022-07-26T11:12:24.089Z,100419.16
2022-07-26T11:14:51.147Z,100418.59
2022-07-26T11:17:28.778Z,100423.06
2022-07-26T11:19:56.363Z,100427.94
2022-07-26T11:22:32.114Z,100423.88
2022-07-26T11:24:58.927Z,100421.59
2022-07-26T11:27:25.665Z,100423.88
2022-07-26T11:29:55.124Z,100444.06
2022-07-26T11:32:25.326Z,100472.22
2022-07-26T11:35:10.653Z,100490.78
2022-07-26T11:37:37.879Z,100498.19
2022-07-26T11:40:05.558Z,100520.06
2022-07-26T11:42:32.917Z,100525.50
2022-07-26T11:45:03.595Z,100532.19
2022-07-26T11:47:31.352Z,100519.59
2022-07-26T11:50:20.011Z,100531.84
2022-07-26T11:52:53.816Z,100522.50
2022-07-26T11:55:47.712Z,100528.63
2022-07-26T11:58:14.609Z,100530.13
2022-07-26T12:00:41.242Z,100523.53
2022-07-26T12:03:07.896Z,100527.69
2022-07-26T12:05:34.856Z,100525.78
2022-07-26T12:08:04.280Z,100514.03
2022-07-26T12:10:31.479Z,100519.81
2022-07-26T12:13:15.504Z,100530.22
2022-07-26T12:15:49.514Z,100529.22
2022-07-26T12:18:42.512Z,100527.66
2022-07-26T12:21:09.759Z,100529.13
2022-07-26T12:23:54.579Z,100530.00
2022-07-26T12:26:26.747Z,100531.34
2022-07-26T12:28:53.840Z,100522.19
2022-07-26T12:31:24.579Z,100526.94
2022-07-26T12:33:56.019Z,100534.34
2022-07-26T12:36:27.135Z,100544.53
2022-07-26T12:39:04.929Z,100539.97
2022-07-26T12:41:42.617Z,100550.88
2022-07-26T12:44:15.709Z,100545.69
2022-07-26T12:46:46.587Z,100545.19
2022-07-26T12:49:13.516Z,100540.38
2022-07-26T12:51:40.662Z,100551.59
2022-07-26T12:54:07.649Z,100540.84
2022-07-26T12:56:34.582Z,100554.00
2022-07-26T12:59:01.602Z,100562.00
2022-07-26T13:01:29.740Z,100568.72
2022-07-26T13:03:56.616Z,100569.66
2022-07-26T13:06:23.671Z,100575.50
2022-07-26T13:08:50.565Z,100568.38
2022-07-26T13:11:17.298Z,100577.94
2022-07-26T13:13:44.029Z,100581.16
2022-07-26T13:16:12.375Z,100587.69
2022-07-26T13:18:39.419Z,100596.22
2022-07-26T13:21:06.259Z,100592.09
2022-07-26T13:23:34.324Z,100598.03
2022-07-26T13:26:02.850Z,100587.69
2022-07-26T13:28:30.173Z,100588.88
2022-07-26T13:30:56.928Z,100591.44
2022-07-26T13:33:23.625Z,100599.78
2022-07-26T13:35:51.025Z,100595.09
2022-07-26T13:38:19.803Z,100594.53
2022-07-26T13:40:46.842Z,100589.72
2022-07-26T13:43:14.393Z,100597.38
2022-07-26T13:45:51.466Z,100587.69
2022-07-26T13:48:23.631Z,100599.56
2022-07-26T13:50:50.457Z,100594.50
2022-07-26T13:53:17.119Z,100601.03
2022-07-26T13:55:44.626Z,100602.97
2022-07-26T13:58:11.306Z,100607.78
2022-07-26T14:00:40.508Z,100606.91
2022-07-26T14:03:07.450Z,100615.44
2022-07-26T14:05:37.091Z,100610.66
2022-07-26T14:08:05.031Z,100609.78
2022-07-26T14:10:32.965Z,100611.66
2022-07-26T14:13:00.725Z,100612.53
2022-07-26T14:15:27.681Z,100617.94
2022-07-26T14:17:58.371Z,100620.47
2022-07-26T14:20:27.183Z,100622.41
2022-07-26T14:22:56.300Z,100618.25
2022-07-26T14:25:24.134Z,100616.53
2022-07-26T14:27:51.874Z,100607.59
2022-07-26T14:30:18.954Z,100611.56
2022-07-26T14:32:45.647Z,100618.41
2022-07-26T14:35:13.628Z,100615.81
2022-07-26T14:37:44.545Z,100613.59
2022-07-26T14:40:17.875Z,100615.81
2022-07-26T14:42:45.935Z,100612.22
2022-07-26T14:47:39.681Z,100608.38
2022-07-26T14:50:08.111Z,100603.97
2022-07-26T14:52:40.238Z,100599.53
2022-07-26T14:55:07.983Z,100603.56
2022-07-26T14:57:39.036Z,100606.38
2022-07-26T15:00:11.816Z,100608.56
2022-07-26T15:02:48.883Z,100606.53
2022-07-26T15:05:16.927Z,100597.63
2022-07-26T15:07:47.753Z,100594.66
2022-07-26T15:10:15.294Z,100608.03
2022-07-26T15:12:42.736Z,100609.28
2022-07-26T15:15:10.688Z,100605.00
2022-07-26T15:17:42.841Z,100614.88
2022-07-26T15:20:10.534Z,100613.47
2022-07-26T15:22:37.230Z,100622.78
2022-07-26T15:25:05.431Z,100618.50
2022-07-26T15:27:32.590Z,100614.72
2022-07-26T15:30:04.249Z,100617.63
2022-07-26T15:32:33.502Z,100616.50
2022-07-26T15:35:01.060Z,100611.22
2022-07-26T15:37:27.989Z,100612.25
2022-07-26T15:39:54.728Z,100617.53
2022-07-26T15:42:23.198Z,100606.22
2022-07-26T15:44:50.852Z,100610.78
2022-07-26T15:47:43.413Z,100615.03
2022-07-26T15:50:07.745Z,100613.63
2022-07-26T15:52:41.231Z,100617.38
2022-07-26T15:55:19.725Z,100615.94
2022-07-26T15:57:52.148Z,100610.78
2022-07-26T16:00:25.726Z,100606.16
2022-07-26T16:02:55.949Z,100606.38
2022-07-26T16:05:24.640Z,100604.78
2022-07-26T16:07:53.892Z,100616.44
2022-07-26T16:10:24.164Z,100617.50
2022-07-26T16:13:00.165Z,100614.97
2022-07-26T16:15:31.202Z,100611.41
2022-07-26T16:18:02.954Z,100616.88
2022-07-26T16:20:33.782Z,100617.66
2022-07-26T16:23:00.818Z,100612.97
2022-07-26T16:27:54.182Z,100611.81
2022-07-26T16:30:38.715Z,100618.03
2022-07-26T16:33:29.716Z,100626.84
2022-07-26T16:36:23.835Z,100619.72
2022-07-26T16:38:58.520Z,100620.50
2022-07-26T16:41:25.698Z,100618.88
2022-07-26T16:43:55.911Z,100620.28
2022-07-26T16:46:23.248Z,100630.38
2022-07-26T16:48:50.096Z,100623.22
2022-07-26T16:51:16.897Z,100628.59
2022-07-26T16:53:43.551Z,100630.31
2022-07-26T16:56:11.730Z,100624.81
2022-07-26T16:58:39.280Z,100624.75
2022-07-26T17:01:06.747Z,100622.53
2022-07-26T17:03:35.781Z,100625.78
2022-07-26T17:06:06.753Z,100636.59
2022-07-26T17:08:33.790Z,100634.41
2022-07-26T17:11:00.844Z,100639.56
2022-07-26T17:13:29.647Z,100632.81
2022-07-26T17:15:57.748Z,100634.56
2022-07-26T17:18:26.066Z,100638.56
2022-07-26T17:20:52.752Z,100642.03
2022-07-26T17:23:19.594Z,100649.63
2022-07-26T17:25:46.857Z,100642.16
2022-07-26T17:28:13.980Z,100641.97
2022-07-26T17:30:40.783Z,100645.03
2022-07-26T17:33:09.365Z,100641.69
2022-07-26T17:35:37.124Z,100644.38
2022-07-26T17:38:04.490Z,100649.41
2022-07-26T17:40:31.753Z,100648.72
2022-07-26T17:42:59.302Z,100655.91
2022-07-26T17:45:26.560Z,100654.69
2022-07-26T17:47:54.610Z,100642.25
2022-07-26T17:50:38.027Z,100650.19
2022-07-26T17:53:05.523Z,100648.78
2022-07-26T17:55:32.371Z,100654.13
2022-07-26T17:57:59.071Z,100649.13
2022-07-26T18:00:29.012Z,100651.81
2022-07-26T18:02:56.932Z,100648.22
2022-07-26T18:05:29.954Z,100652.38
2022-07-26T18:08:00.583Z,100655.75
2022-07-26T18:10:28.554Z,100647.13
2022-07-26T18:12:55.613Z,100653.69
2022-07-26T18:15:22.493Z,100648.41
2022-07-26T18:17:50.547Z,100657.41
2022-07-26T18:20:17.249Z,100660.53
2022-07-26T18:22:45.943Z,100659.84
2022-07-26T18:25:18.685Z,100660.72
2022-07-26T18:28:16.843Z,100664.69
2022-07-26T18:31:00.387Z,100668.13
2022-07-26T18:33:28.099Z,100672.38
2022-07-26T18:36:00.887Z,100672.78
2022-07-26T18:38:27.919Z,100668.03
2022-07-26T18:40:56.136Z,100670.94
2022-07-26T18:43:26.597Z,100679.16
2022-07-26T18:45:59.275Z,100670.28
2022-07-26T18:48:32.029Z,100674.53
2022-07-26T18:51:20.341Z,100675.78
2022-07-26T18:53:52.856Z,100676.53
2022-07-26T18:56:41.026Z,100677.25
2022-07-26T18:59:12.880Z,100681.41
2022-07-26T19:01:42.278Z,100692.00
2022-07-26T19:04:12.715Z,100693.88
2022-07-26T19:06:40.195Z,100695.63
2022-07-26T19:09:07.058Z,100703.88
2022-07-26T19:11:36.342Z,100692.41
2022-07-26T19:14:05.516Z,100702.59
2022-07-26T19:16:32.772Z,100704.13
2022-07-26T19:19:01.404Z,100711.69
2022-07-26T19:21:28.166Z,100715.78
2022-07-26T19:23:56.186Z,100725.69
2022-07-26T19:26:25.210Z,100730.06
2022-07-26T19:28:58.566Z,100720.59
2022-07-26T19:31:42.937Z,100726.03
2022-07-26T19:34:23.781Z,100727.38
2022-07-26T19:36:55.268Z,100735.56
2022-07-26T19:39:23.363Z,100734.78
2022-07-26T19:41:50.960Z,100739.88
2022-07-26T19:44:17.854Z,100741.84
2022-07-26T19:46:44.913Z,100746.41
2022-07-26T19:49:12.808Z,100745.22
2022-07-26T19:51:39.964Z,100754.56
2022-07-26T19:54:06.642Z,100748.78
2022-07-26T19:56:33.495Z,100745.78
2022-07-26T19:59:00.468Z,100762.03
2022-07-26T20:01:28.483Z,100768.59
2022-07-26T20:03:56.110Z,100757.94
2022-07-26T20:06:23.500Z,100758.56
2022-07-26T20:08:50.564Z,100758.88
2022-07-26T20:11:22.700Z,100761.53
2022-07-26T20:13:49.753Z,100760.47
2022-07-26T20:16:17.495Z,100757.47
2022-07-26T20:18:44.146Z,100759.97
2022-07-26T20:21:13.746Z,100765.28
2022-07-26T20:23:44.157Z,100763.09
2022-07-26T20:26:13.516Z,100769.41
2022-07-26T20:28:41.572Z,100766.97
2022-07-26T20:31:08.531Z,100771.75
2022-07-26T20:33:35.238Z,100780.84
2022-07-26T20:36:01.853Z,100780.84
2022-07-26T20:38:28.561Z,100779.94
2022-07-26T20:40:55.931Z,100784.47
2022-07-26T20:43:24.207Z,100783.94
2022-07-26T20:45:53.840Z,100791.28
2022-07-26T20:48:20.639Z,100783.53
2022-07-26T20:50:47.283Z,100783.63
2022-07-26T20:53:13.962Z,100785.69
2022-07-26T20:55:40.576Z,100790.31
2022-07-26T20:58:07.201Z,100794.97
2022-07-26T21:00:33.860Z,100799.56
2022-07-26T21:03:01.077Z,100798.22
2022-07-26T21:05:32.327Z,100799.28
2022-07-26T21:08:00.141Z,100805.81
2022-07-26T21:10:29.322Z,100816.44
2022-07-26T21:13:01.494Z,100815.72
2022-07-26T21:15:29.865Z,100816.03
2022-07-26T21:17:56.916Z,100822.44
2022-07-26T21:20:23.546Z,100828.84
2022-07-26T21:22:50.316Z,100823.84
2022-07-26T21:25:17.077Z,100832.66
2022-07-26T21:27:43.909Z,100830.22
2022-07-26T21:30:11.668Z,100838.31
2022-07-26T21:32:38.307Z,100834.06
2022-07-26T21:35:05.550Z,100832.53
2022-07-26T21:37:32.325Z,100830.03
2022-07-26T21:40:00.708Z,100836.41
2022-07-26T21:42:28.024Z,100837.59
2022-07-26T21:44:54.810Z,100835.97
2022-07-26T21:47:22.055Z,100844.88
2022-07-26T21:49:50.907Z,100852.16
2022-07-26T21:52:17.707Z,100858.53
2022-07-26T21:54:44.433Z,100859.63
2022-07-26T21:57:11.140Z,100858.03
2022-07-26T21:59:37.781Z,100866.03
2022-07-26T22:02:04.509Z,100865.97
2022-07-26T22:04:31.270Z,100866.34
2022-07-26T22:06:57.966Z,100865.75
2022-07-26T22:09:33.775Z,100869.47
2022-07-26T22:12:00.777Z,100873.09
2022-07-26T22:14:27.376Z,100879.41
2022-07-26T22:16:54.042Z,100874.19
2022-07-26T22:19:20.823Z,100873.28
2022-07-26T22:21:47.436Z,100888.34
2022-07-26T22:24:14.037Z,100886.75
2022-07-26T22:26:42.109Z,100891.41
2022-07-26T22:29:09.769Z,100895.13
2022-07-26T22:31:36.616Z,100898.53
2022-07-26T22:34:03.423Z,100894.34
2022-07-26T22:36:30.069Z,100893.50
2022-07-26T22:39:03.331Z,100885.63
2022-07-26T22:41:32.615Z,100899.88
2022-07-26T22:44:00.588Z,100888.44
2022-07-26T22:46:27.805Z,100891.25
2022-07-26T22:48:56.169Z,100893.94
2022-07-26T22:51:22.813Z,100895.84
2022-07-26T22:53:49.497Z,100894.16
2022-07-26T22:56:19.659Z,100899.53
2022-07-26T22:58:46.770Z,100894.34
2022-07-26T23:01:13.742Z,100894.31
2022-07-26T23:03:41.141Z,100887.38
2022-07-26T23:06:14.921Z,100891.88
2022-07-26T23:08:56.532Z,100897.25
2022-07-26T23:11:23.615Z,100892.75
2022-07-26T23:13:50.255Z,100889.31
2022-07-26T23:16:25.416Z,100891.13
2022-07-26T23:18:52.886Z,100888.56
2022-07-26T23:21:19.579Z,100889.50
2022-07-26T23:23:46.413Z,100891.25
2022-07-26T23:26:13.247Z,100887.84
2022-07-26T23:28:39.893Z,100892.34
2022-07-26T23:31:11.510Z,100889.00
2022-07-26T23:33:52.441Z,100890.78
2022-07-26T23:36:27.602Z,100896.97
2022-07-26T23:39:05.774Z,100897.88
2022-07-26T23:41:32.553Z,100894.31
2022-07-26T23:43:59.234Z,100895.41
2022-07-26T23:46:26.523Z,100889.22
2022-07-26T23:48:54.210Z,100885.81
2022-07-26T23:51:23.058Z,100884.16
2022-07-26T23:53:50.347Z,100891.38
2022-07-26T23:56:17.532Z,100893.16
2022-07-26T23:58:44.771Z,100888.09
